MSC Divina — 3FFA5 — position and weather

sailwx.info

Track history (hours):
 
Tides and Currents Weather Stations Pressure Air Temp Water Temp Dewpoint Dewpoint Depression Visibility Wind Speed Wind Dir Waves Ship Positions

MSC Divina

Last reported at 2017-Nov-24 12:00 UTC. Time now 2017-Nov-24 22:33 UTC.
Position N 25°24' W 077°24'.

Length 333 m; draft 8.7 m.

Type: Passenger vessel. MMSI: 373178000.

Wind from 230 at 14 knots

Barometer 1013.6 mb
Air temperature 28.0 ° C
Visibility: greater than 5.4 NM
Dewpoint 23.9 ° C
Water temperature 28.0 ° C

Date/timePositionNaut miles runAvg speedWind from/ knotsBaromVisibWave heightAir tempDewpointWater temp
2017-Nov-24 12:00N 25°24' W 077°24'10814.2 230 / 141013.6 5.4 28.023.928.0
2017-Nov-24 04:20N 25°59' W 079°18'616.9
2017-Nov-24 04:00N 25°54' W 079°20'816.5
2017-Nov-24 03:31N 25°46' W 079°23'816.6
2017-Nov-24 03:00N 25°38' W 079°26'816.7
2017-Nov-24 02:30N 25°30' W 079°29'14617.2
2017-Nov-23 18:00N 23°48' W 081°24'13322.2 200 / 101013.1 5.4 28.023.928.0
2017-Nov-23 12:00N 23°06' W 083°42'23019.2 200 / 141014.1 5.4 27.022.827.0
2017-Nov-23 00:01N 20°39' W 086°52'020.8
2017-Nov-23 00:00N 20°39' W 086°53'918.7
2017-Nov-22 23:30N 20°31' W 086°58'0 0.9
2017-Nov-22 23:00N 20°31' W 086°57'0 0.0
2017-Nov-22 22:29N 20°31' W 086°57'0 0.0
2017-Nov-22 21:59N 20°31' W 086°57'0 0.0
2017-Nov-22 21:29N 20°31' W 086°57'0 0.0
2017-Nov-22 20:59N 20°31' W 086°57'0 0.0
2017-Nov-22 20:26N 20°31' W 086°57'0 0.0
2017-Nov-22 19:56N 20°31' W 086°57'0 0.0
2017-Nov-22 19:29N 20°31' W 086°57'32910.4
2017-Nov-21 12:00N 19°12' W 081°18'   100 / 161013.6 5.4 27.024.328.0
2017-Nov-19 02:07N 25°30' W 079°46'316.9
2017-Nov-19 01:56N 25°32' W 079°49'716.9
2017-Nov-19 01:30N 25°37' W 079°55'917.1
2017-Nov-19 01:00N 25°43' W 080°01'612.2
2017-Nov-19 00:30N 25°46' W 080°08'3 5.9
2017-Nov-19 00:00N 25°47' W 080°11'0 0.0
2017-Nov-18 23:30N 25°47' W 080°11'0 0.0
2017-Nov-18 23:00N 25°47' W 080°11'0 0.0
2017-Nov-18 22:30N 25°47' W 080°11'0 0.0
2017-Nov-18 22:00N 25°47' W 080°11'0 0.0
2017-Nov-18 21:30N 25°47' W 080°11'0 0.0
2017-Nov-18 21:00N 25°47' W 080°11'0 0.0
2017-Nov-18 20:30N 25°47' W 080°11'0 0.0
2017-Nov-18 20:00N 25°47' W 080°11'0 0.0
2017-Nov-18 19:30N 25°47' W 080°11'0 0.0
2017-Nov-18 19:00N 25°47' W 080°11'0 0.0
2017-Nov-18 18:30N 25°47' W 080°11'0 0.0
2017-Nov-18 18:00N 25°47' W 080°11'0 0.0
2017-Nov-18 17:30N 25°47' W 080°11'0 0.0
2017-Nov-18 17:00N 25°47' W 080°11'0 0.0
2017-Nov-18 16:30N 25°47' W 080°11'0 0.0
2017-Nov-18 16:00N 25°47' W 080°11'0 0.0
2017-Nov-18 15:30N 25°47' W 080°11'0 0.0
2017-Nov-18 15:00N 25°47' W 080°11'0 0.0
2017-Nov-18 14:30N 25°47' W 080°11'0 0.0
2017-Nov-18 14:00N 25°47' W 080°11'0 0.0
2017-Nov-18 13:27N 25°47' W 080°11'0 0.0
2017-Nov-18 13:01N 25°47' W 080°11'0 0.0
2017-Nov-18 12:29N 25°47' W 080°11'0 0.0
2017-Nov-18 11:59N 25°47' W 080°11'0 0.0
2017-Nov-18 11:29N 25°47' W 080°11'0 0.0
2017-Nov-18 10:59N 25°47' W 080°11'0 0.5
2017-Nov-18 10:31N 25°47' W 080°11'2 3.4
2017-Nov-18 10:00N 25°46' W 080°09'510.7
2017-Nov-18 09:31N 25°46' W 080°03'510.0
2017-Nov-18 09:01N 25°48' W 079°58'713.8
2017-Nov-18 08:30N 25°51' W 079°52'713.9
2017-Nov-18 08:00N 25°55' W 079°45'815.4
2017-Nov-18 07:30N 25°58' W 079°37'151 7.7
2017-Nov-17 12:00N 25°24' W 076°54'47920.0 030 / 151017.6 5.4 28.023.928.0
2017-Nov-16 12:00N 21°12' W 069°30'46412.6 040 / 131011.6 5.4 27.024.328.0
2017-Nov-14 23:13N 17°22' W 062°24'517.9
2017-Nov-14 22:57N 17°20' W 062°19'817.9
2017-Nov-14 22:30N 17°16' W 062°12'816.9
2017-Nov-14 22:00N 17°13' W 062°04'917.7
2017-Nov-14 21:30N 17°09' W 061°55'4 8.7
2017-Nov-14 21:00N 17°07' W 061°51'0 0.6
2017-Nov-14 20:28N 17°07' W 061°51'0 0.0
2017-Nov-14 19:55N 17°07' W 061°51'0 0.0
2017-Nov-14 19:28N 17°07' W 061°51'0 0.0
2017-Nov-14 18:58N 17°07' W 061°51'0 0.0
2017-Nov-14 18:28N 17°07' W 061°51'0 0.0
2017-Nov-14 18:00N 17°07' W 061°51'0 0.0
2017-Nov-14 17:30N 17°07' W 061°51'0 0.0
2017-Nov-14 17:00N 17°07' W 061°51'0 0.0
2017-Nov-14 16:29N 17°07' W 061°51'0 0.0
2017-Nov-14 15:58N 17°07' W 061°51'0 0.0
2017-Nov-14 15:28N 17°07' W 061°51'0 0.0
2017-Nov-14 14:59N 17°07' W 061°51'0 0.0
2017-Nov-14 14:29N 17°07' W 061°51'0 0.0
2017-Nov-14 13:59N 17°07' W 061°51'0 0.0
2017-Nov-14 13:28N 17°07' W 061°51'0 0.0
2017-Nov-14 13:01N 17°07' W 061°51'  
Track history (hours):
 
Tides and Currents Weather Stations Pressure Air Temp Water Temp Dewpoint Dewpoint Depression Visibility Wind Speed Wind Dir Waves Ship Positions

MSC Divina

Last reported at 2017-Nov-24 12:00 UTC. Time now 2017-Nov-24 22:33 UTC.
Position N 25°24' W 077°24'.

Length 333 m; draft 8.7 m.

Type: Passenger vessel. MMSI: 373178000.

Wind from 230 at 14 knots

Barometer 1013.6 mb
Air temperature 28.0 ° C
Visibility: greater than 5.4 NM
Dewpoint 23.9 ° C
Water temperature 28.0 ° C

Date/timePositionNaut miles runAvg speedWind from/ knotsBaromVisibWave heightAir tempDewpointWater temp
2017-Nov-24 12:00N 25°24' W 077°24'10814.2 230 / 141013.6 5.4 28.023.928.0
2017-Nov-24 04:20N 25°59' W 079°18'616.9
2017-Nov-24 04:00N 25°54' W 079°20'816.5
2017-Nov-24 03:31N 25°46' W 079°23'816.6
2017-Nov-24 03:00N 25°38' W 079°26'816.7
2017-Nov-24 02:30N 25°30' W 079°29'14617.2
2017-Nov-23 18:00N 23°48' W 081°24'13322.2 200 / 101013.1 5.4 28.023.928.0
2017-Nov-23 12:00N 23°06' W 083°42'23019.2 200 / 141014.1 5.4 27.022.827.0
2017-Nov-23 00:01N 20°39' W 086°52'020.8
2017-Nov-23 00:00N 20°39' W 086°53'918.7
2017-Nov-22 23:30N 20°31' W 086°58'0 0.9
2017-Nov-22 23:00N 20°31' W 086°57'0 0.0
2017-Nov-22 22:29N 20°31' W 086°57'0 0.0
2017-Nov-22 21:59N 20°31' W 086°57'0 0.0
2017-Nov-22 21:29N 20°31' W 086°57'0 0.0
2017-Nov-22 20:59N 20°31' W 086°57'0 0.0
2017-Nov-22 20:26N 20°31' W 086°57'0 0.0
2017-Nov-22 19:56N 20°31' W 086°57'0 0.0
2017-Nov-22 19:29N 20°31' W 086°57'32910.4
2017-Nov-21 12:00N 19°12' W 081°18'   100 / 161013.6 5.4 27.024.328.0
2017-Nov-19 02:07N 25°30' W 079°46'316.9
2017-Nov-19 01:56N 25°32' W 079°49'716.9
2017-Nov-19 01:30N 25°37' W 079°55'917.1
2017-Nov-19 01:00N 25°43' W 080°01'612.2
2017-Nov-19 00:30N 25°46' W 080°08'3 5.9
2017-Nov-19 00:00N 25°47' W 080°11'0 0.0
2017-Nov-18 23:30N 25°47' W 080°11'0 0.0
2017-Nov-18 23:00N 25°47' W 080°11'0 0.0
2017-Nov-18 22:30N 25°47' W 080°11'0 0.0
2017-Nov-18 22:00N 25°47' W 080°11'0 0.0
2017-Nov-18 21:30N 25°47' W 080°11'0 0.0
2017-Nov-18 21:00N 25°47' W 080°11'0 0.0
2017-Nov-18 20:30N 25°47' W 080°11'0 0.0
2017-Nov-18 20:00N 25°47' W 080°11'0 0.0
2017-Nov-18 19:30N 25°47' W 080°11'0 0.0
2017-Nov-18 19:00N 25°47' W 080°11'0 0.0
2017-Nov-18 18:30N 25°47' W 080°11'0 0.0
2017-Nov-18 18:00N 25°47' W 080°11'0 0.0
2017-Nov-18 17:30N 25°47' W 080°11'0 0.0
2017-Nov-18 17:00N 25°47' W 080°11'0 0.0
2017-Nov-18 16:30N 25°47' W 080°11'0 0.0
2017-Nov-18 16:00N 25°47' W 080°11'0 0.0
2017-Nov-18 15:30N 25°47' W 080°11'0 0.0
2017-Nov-18 15:00N 25°47' W 080°11'0 0.0
2017-Nov-18 14:30N 25°47' W 080°11'0 0.0
2017-Nov-18 14:00N 25°47' W 080°11'0 0.0
2017-Nov-18 13:27N 25°47' W 080°11'0 0.0
2017-Nov-18 13:01N 25°47' W 080°11'0 0.0
2017-Nov-18 12:29N 25°47' W 080°11'0 0.0
2017-Nov-18 11:59N 25°47' W 080°11'0 0.0
2017-Nov-18 11:29N 25°47' W 080°11'0 0.0
2017-Nov-18 10:59N 25°47' W 080°11'0 0.5
2017-Nov-18 10:31N 25°47' W 080°11'2 3.4
2017-Nov-18 10:00N 25°46' W 080°09'510.7
2017-Nov-18 09:31N 25°46' W 080°03'510.0
2017-Nov-18 09:01N 25°48' W 079°58'713.8
2017-Nov-18 08:30N 25°51' W 079°52'713.9
2017-Nov-18 08:00N 25°55' W 079°45'815.4
2017-Nov-18 07:30N 25°58' W 079°37'151 7.7
2017-Nov-17 12:00N 25°24' W 076°54'47920.0 030 / 151017.6 5.4 28.023.928.0
2017-Nov-16 12:00N 21°12' W 069°30'46412.6 040 / 131011.6 5.4 27.024.328.0
2017-Nov-14 23:13N 17°22' W 062°24'517.9
2017-Nov-14 22:57N 17°20' W 062°19'817.9
2017-Nov-14 22:30N 17°16' W 062°12'816.9
2017-Nov-14 22:00N 17°13' W 062°04'917.7
2017-Nov-14 21:30N 17°09' W 061°55'4 8.7
2017-Nov-14 21:00N 17°07' W 061°51'0 0.6
2017-Nov-14 20:28N 17°07' W 061°51'0 0.0
2017-Nov-14 19:55N 17°07' W 061°51'0 0.0
2017-Nov-14 19:28N 17°07' W 061°51'0 0.0
2017-Nov-14 18:58N 17°07' W 061°51'0 0.0
2017-Nov-14 18:28N 17°07' W 061°51'0 0.0
2017-Nov-14 18:00N 17°07' W 061°51'0 0.0
2017-Nov-14 17:30N 17°07' W 061°51'0 0.0
2017-Nov-14 17:00N 17°07' W 061°51'0 0.0
2017-Nov-14 16:29N 17°07' W 061°51'0 0.0
2017-Nov-14 15:58N 17°07' W 061°51'0 0.0
2017-Nov-14 15:28N 17°07' W 061°51'0 0.0
2017-Nov-14 14:59N 17°07' W 061°51'0 0.0
2017-Nov-14 14:29N 17°07' W 061°51'0 0.0
2017-Nov-14 13:59N 17°07' W 061°51'0 0.0
2017-Nov-14 13:28N 17°07' W 061°51'0 0.0
2017-Nov-14 13:01N 17°07' W 061°51'  

Dump ship's entire track history